createdAt,value
2023-08-11T00:07:24.232Z,98547.88
2023-08-11T00:17:28.496Z,98551.00
2023-08-11T00:27:31.927Z,98544.47
2023-08-11T00:37:36.320Z,98555.88
2023-08-11T00:47:42.602Z,98537.31
2023-08-11T00:57:47.371Z,98539.25
2023-08-11T01:08:00.069Z,98523.94
2023-08-11T01:18:05.477Z,98516.88
2023-08-11T01:28:09.759Z,98515.47
2023-08-11T01:38:14.093Z,98506.59
2023-08-11T01:48:19.401Z,98512.88
2023-08-11T01:58:22.418Z,98520.22
2023-08-11T02:08:27.324Z,98503.81
2023-08-11T02:18:30.509Z,98510.63
2023-08-11T02:28:35.062Z,98504.09
2023-08-11T02:38:38.669Z,98505.91
2023-08-11T02:48:42.935Z,98496.16
2023-08-11T02:58:45.953Z,98490.69
2023-08-11T03:08:50.256Z,98491.41
2023-08-11T03:18:53.532Z,98498.75
2023-08-11T03:28:57.824Z,98501.16
2023-08-11T03:39:00.716Z,98499.22
2023-08-11T03:49:05.041Z,98501.34
2023-08-11T03:59:08.118Z,98504.81
2023-08-11T04:09:13.956Z,98510.72
2023-08-11T04:19:16.858Z,98497.66
2023-08-11T04:29:21.268Z,98514.28
2023-08-11T04:39:24.279Z,98510.38
2023-08-11T04:49:28.657Z,98517.41
2023-08-11T04:59:32.250Z,98520.63
2023-08-11T05:09:38.769Z,98528.66
2023-08-11T05:19:41.958Z,98540.56
2023-08-11T05:29:48.431Z,98539.66
2023-08-11T05:39:51.554Z,98539.19
2023-08-11T05:49:55.909Z,98540.13
2023-08-11T05:59:59.180Z,98534.38
2023-08-11T06:10:03.390Z,98547.38
2023-08-11T06:20:09.924Z,98550.13
2023-08-11T06:30:14.562Z,98556.28
2023-08-11T06:40:17.659Z,98559.16
2023-08-11T06:50:21.960Z,98570.19
2023-08-11T07:00:25.267Z,98565.03
2023-08-11T07:10:29.786Z,98568.97
2023-08-11T07:20:32.646Z,98568.91
2023-08-11T07:30:38.281Z,98567.19
2023-08-11T07:40:41.204Z,98571.03
2023-08-11T07:50:45.428Z,98575.41
2023-08-11T08:00:48.452Z,98571.56
2023-08-11T08:10:52.988Z,98560.53
2023-08-11T08:20:55.949Z,98567.88
2023-08-11T08:31:00.237Z,98557.06
2023-08-11T08:41:03.191Z,98559.81
2023-08-11T08:51:08.112Z,98561.03
2023-08-11T09:01:11.963Z,98556.34
2023-08-11T09:11:16.493Z,98561.34
2023-08-11T09:21:20.002Z,98542.78
2023-08-11T09:31:25.163Z,98545.72
2023-08-11T09:41:27.990Z,98542.63
2023-08-11T09:51:34.846Z,98542.94
2023-08-11T10:01:38.723Z,98553.97
2023-08-11T10:11:44.681Z,98543.00
2023-08-11T10:21:47.389Z,98547.31
2023-08-11T10:32:01.129Z,98536.72
2023-08-11T10:42:05.284Z,98531.25
2023-08-11T10:52:10.690Z,98519.63
2023-08-11T11:02:14.348Z,98507.75
2023-08-11T11:12:18.657Z,98491.38
2023-08-11T11:22:23.015Z,98491.50
2023-08-11T11:32:27.364Z,98486.47
2023-08-11T11:42:30.673Z,98486.97
2023-08-11T11:52:37.582Z,98490.13
2023-08-11T12:02:41.325Z,98490.78
2023-08-11T12:12:45.477Z,98492.50
2023-08-11T12:22:48.210Z,98473.84
2023-08-11T12:32:52.424Z,98462.50
2023-08-11T12:42:55.929Z,98463.28
2023-08-11T12:53:01.150Z,98450.88
2023-08-11T13:03:04.198Z,98453.28
2023-08-11T13:13:10.817Z,98450.06
2023-08-11T13:23:17.113Z,98448.72
2023-08-11T13:33:21.998Z,98441.78
2023-08-11T13:43:24.977Z,98427.34
2023-08-11T13:53:30.144Z,98414.03
2023-08-11T14:03:33.480Z,98412.66
2023-08-11T14:13:37.917Z,98403.88
2023-08-11T14:23:40.864Z,98395.19
2023-08-11T14:33:45.048Z,98400.88
2023-08-11T14:43:47.866Z,98389.09
2023-08-11T14:53:51.997Z,98389.59
2023-08-11T15:03:55.492Z,98386.13
2023-08-11T15:13:59.647Z,98383.56
2023-08-11T15:24:02.401Z,98369.50
2023-08-11T15:34:07.177Z,98363.03
2023-08-11T15:44:10.180Z,98367.44
2023-08-11T15:54:14.360Z,98355.84
2023-08-11T16:04:17.634Z,98326.69
2023-08-11T16:14:21.943Z,98315.72
2023-08-11T16:24:24.807Z,98323.69
2023-08-11T16:34:28.962Z,98324.00
2023-08-11T16:44:31.882Z,98323.16
2023-08-11T16:54:36.590Z,98315.91
2023-08-11T17:04:39.407Z,98322.78
2023-08-11T17:14:43.499Z,98317.56
2023-08-11T17:24:46.482Z,98317.78
2023-08-11T17:34:57.840Z,98312.09
2023-08-11T17:45:01.267Z,98318.78
2023-08-11T17:55:06.550Z,98310.88
2023-08-11T18:05:09.898Z,98320.56
2023-08-11T18:15:14.298Z,98321.22
2023-08-11T18:25:17.409Z,98323.63
2023-08-11T18:35:21.659Z,98328.13
2023-08-11T18:45:24.573Z,98322.22
2023-08-11T18:55:28.934Z,98318.91
2023-08-11T19:05:33.414Z,98336.41
2023-08-11T19:15:37.488Z,98341.25
2023-08-11T19:25:40.277Z,98335.59
2023-08-11T19:35:45.121Z,98336.81
2023-08-11T19:45:49.433Z,98328.13
2023-08-11T19:55:53.642Z,98319.34
2023-08-11T20:05:56.450Z,98317.41
2023-08-11T20:16:01.163Z,98309.00
2023-08-11T20:26:04.365Z,98305.78
2023-08-11T20:36:08.668Z,98302.88
2023-08-11T20:46:11.576Z,98293.31
2023-08-11T20:56:15.830Z,98288.31
2023-08-11T21:06:18.640Z,98288.19
2023-08-11T21:16:24.076Z,98295.38
2023-08-11T21:26:27.064Z,98287.78
2023-08-11T21:36:31.169Z,98284.41
2023-08-11T21:46:34.550Z,98286.34
2023-08-11T21:56:38.754Z,98282.97
2023-08-11T22:06:41.736Z,98275.53
2023-08-11T22:16:46.532Z,98262.50
2023-08-11T22:26:49.377Z,98257.06
2023-08-11T22:36:53.576Z,98267.22
2023-08-11T22:46:56.659Z,98259.78
2023-08-11T22:57:01.970Z,98253.16
2023-08-11T23:07:04.976Z,98252.56
2023-08-11T23:17:09.462Z,98252.03
2023-08-11T23:27:18.125Z,98245.59
2023-08-11T23:37:22.758Z,98241.31
2023-08-11T23:47:25.739Z,98241.94
2023-08-11T23:57:30.287Z,98249.06
